Time;durP1;ratioP1;P1;durP2;ratioP2;P2;SDS_P1;SDS_P2;PMS_P1;PMS_P2;Temp;Humidity;BMP_temperature;BMP_pressure;BME280_temperature;BME280_humidity;BME280_pressure;Samples;Min_cycle;Max_cycle;Signal;HPM_P1;HPM_P2
2024/01/24 00:00:07;;;;;;;28.83;16.98;;;;;;;;;;10520812;28;20446;-84
2024/01/24 00:05:11;;;;;;;30.45;17.02;;;;;;;;;;10513856;28;20408;-84
2024/01/24 00:10:14;;;;;;;28.67;16.48;;;;;;;;;;10518518;28;20410;-84
2024/01/24 00:15:16;;;;;;;26.65;15.65;;;;;;;;;;10513392;28;20951;-84
2024/01/24 00:20:20;;;;;;;30.60;17.02;;;;;;;;;;10523061;28;20400;-84
2024/01/24 00:25:22;;;;;;;32.22;18.02;;;;;;;;;;10519403;28;20961;-84
2024/01/24 00:30:24;;;;;;;32.85;17.60;;;;;;;;;;10516991;28;20420;-84
2024/01/24 00:35:28;;;;;;;30.37;17.00;;;;;;;;;;10532521;28;20413;-84
2024/01/24 00:40:30;;;;;;;28.20;16.05;;;;;;;;;;10525121;28;20465;-83
2024/01/24 00:45:33;;;;;;;30.75;16.80;;;;;;;;;;10515504;28;20463;-84
2024/01/24 00:50:36;;;;;;;29.65;16.92;;;;;;;;;;10516056;28;20414;-84
2024/01/24 00:55:39;;;;;;;30.65;16.20;;;;;;;;;;10521622;28;20408;-84
2024/01/24 01:00:41;;;;;;;27.45;15.68;;;;;;;;;;10517438;28;20408;-83
2024/01/24 01:05:45;;;;;;;25.95;15.80;;;;;;;;;;10542974;28;20402;-84
2024/01/24 01:10:47;;;;;;;24.33;14.77;;;;;;;;;;10518499;28;20413;-83
2024/01/24 01:15:50;;;;;;;26.80;15.50;;;;;;;;;;10521738;28;20460;-84
2024/01/24 01:20:53;;;;;;;29.80;14.93;;;;;;;;;;10524774;28;20400;-84
2024/01/24 01:25:56;;;;;;;26.33;14.47;;;;;;;;;;10524306;28;20436;-84
2024/01/24 01:36:17;;;;;;;22.40;13.60;;;;;;;;;;9956658;26;20919;-82
2024/01/24 01:41:19;;;;;;;22.33;12.53;;;;;;;;;;10464958;28;20462;-84
2024/01/24 01:46:22;;;;;;;23.08;13.20;;;;;;;;;;10463177;28;20451;-84
2024/01/24 01:51:26;;;;;;;20.17;12.13;;;;;;;;;;10480649;28;20472;-82
2024/01/24 01:56:29;;;;;;;19.48;11.95;;;;;;;;;;10473000;28;20394;-84
2024/01/24 02:01:31;;;;;;;20.83;12.40;;;;;;;;;;10486122;28;20404;-84
2024/01/24 02:06:35;;;;;;;23.10;12.05;;;;;;;;;;10504490;28;20472;-84
2024/01/24 02:11:37;;;;;;;19.98;12.45;;;;;;;;;;10472650;28;20445;-84
2024/01/24 02:16:40;;;;;;;21.53;12.97;;;;;;;;;;10474138;28;20460;-83
2024/01/24 02:21:44;;;;;;;24.95;12.27;;;;;;;;;;10478778;28;20862;-84
2024/01/24 02:26:47;;;;;;;22.23;12.48;;;;;;;;;;10476121;28;21004;-84
2024/01/24 02:31:50;;;;;;;24.10;13.33;;;;;;;;;;10480037;28;20459;-84
2024/01/24 02:36:53;;;;;;;21.40;12.55;;;;;;;;;;10565263;28;20526;-84
2024/01/24 02:41:57;;;;;;;20.20;12.35;;;;;;;;;;10567979;28;20444;-84
2024/01/24 02:46:59;;;;;;;20.77;12.90;;;;;;;;;;10572964;28;20830;-84
2024/01/24 02:52:02;;;;;;;24.60;13.27;;;;;;;;;;10572404;28;20395;-84
2024/01/24 02:57:06;;;;;;;22.70;12.70;;;;;;;;;;10562815;28;20422;-84
2024/01/24 03:02:08;;;;;;;25.30;13.47;;;;;;;;;;10563520;28;20494;-84
2024/01/24 03:07:10;;;;;;;23.90;12.07;;;;;;;;;;10557481;28;20476;-84
2024/01/24 03:12:14;;;;;;;22.10;13.57;;;;;;;;;;10561793;28;20959;-84
2024/01/24 03:17:17;;;;;;;23.10;13.75;;;;;;;;;;10564127;28;20465;-84
2024/01/24 03:22:20;;;;;;;21.90;12.40;;;;;;;;;;10565271;28;20399;-83
2024/01/24 03:27:23;;;;;;;23.92;13.00;;;;;;;;;;10564528;28;20424;-84
2024/01/24 03:32:26;;;;;;;22.05;12.73;;;;;;;;;;10560412;28;21012;-84
2024/01/24 03:37:28;;;;;;;19.90;11.90;;;;;;;;;;10563520;28;20432;-84
2024/01/24 03:42:33;;;;;;;22.73;13.10;;;;;;;;;;10567558;28;20390;-85
2024/01/24 03:47:35;;;;;;;21.90;12.55;;;;;;;;;;10573389;28;20423;-84
2024/01/24 03:52:37;;;;;;;20.88;12.40;;;;;;;;;;10559232;28;20467;-85
2024/01/24 03:57:42;;;;;;;21.33;13.10;;;;;;;;;;10586784;28;20431;-83
2024/01/24 04:02:44;;;;;;;28.60;13.35;;;;;;;;;;10560124;28;20485;-84
2024/01/24 04:07:46;;;;;;;25.75;13.38;;;;;;;;;;10558383;28;20414;-84
2024/01/24 04:12:50;;;;;;;22.67;12.63;;;;;;;;;;10558756;28;20480;-84
2024/01/24 04:17:53;;;;;;;22.97;13.10;;;;;;;;;;10559219;28;20399;-83
2024/01/24 04:22:55;;;;;;;21.60;11.88;;;;;;;;;;10560765;28;20476;-84
2024/01/24 04:27:59;;;;;;;20.65;12.25;;;;;;;;;;10557152;28;20422;-84
2024/01/24 04:33:02;;;;;;;19.33;11.83;;;;;;;;;;10559570;28;20491;-84
2024/01/24 04:38:04;;;;;;;20.37;11.90;;;;;;;;;;10566372;28;20399;-84
2024/01/24 04:43:09;;;;;;;19.55;12.25;;;;;;;;;;10569163;28;21030;-83
2024/01/24 04:48:11;;;;;;;19.50;12.10;;;;;;;;;;10559144;28;20414;-84
2024/01/24 04:53:13;;;;;;;22.70;12.90;;;;;;;;;;10559910;28;20431;-84
2024/01/24 04:58:17;;;;;;;20.40;12.70;;;;;;;;;;10559218;28;20406;-84
2024/01/24 05:03:20;;;;;;;20.53;12.20;;;;;;;;;;10557991;28;20388;-83
2024/01/24 05:08:22;;;;;;;20.25;11.52;;;;;;;;;;10560859;28;20419;-83
2024/01/24 05:13:26;;;;;;;19.10;11.07;;;;;;;;;;10556041;28;20399;-83
2024/01/24 05:18:28;;;;;;;20.80;11.77;;;;;;;;;;10558662;28;20399;-84
2024/01/24 05:23:31;;;;;;;25.13;12.75;;;;;;;;;;10562836;28;20391;-83
2024/01/24 05:28:34;;;;;;;24.08;12.65;;;;;;;;;;10557573;28;20408;-83
2024/01/24 05:33:37;;;;;;;22.52;12.88;;;;;;;;;;10556382;28;20438;-84
2024/01/24 05:38:39;;;;;;;20.27;12.05;;;;;;;;;;10557543;28;20866;-83
2024/01/24 05:43:43;;;;;;;19.38;12.00;;;;;;;;;;10562015;28;20461;-83
2024/01/24 05:48:46;;;;;;;22.30;12.27;;;;;;;;;;10566865;28;21131;-84
2024/01/24 05:53:48;;;;;;;21.40;11.80;;;;;;;;;;10546545;28;20394;-83
2024/01/24 05:58:52;;;;;;;21.30;12.30;;;;;;;;;;10553364;28;20406;-84
2024/01/24 06:03:56;;;;;;;22.27;12.43;;;;;;;;;;10551621;28;20395;-83
2024/01/24 06:08:59;;;;;;;21.10;12.40;;;;;;;;;;10536936;28;20423;-83
2024/01/24 06:14:03;;;;;;;19.98;12.15;;;;;;;;;;10549434;28;20583;-82
2024/01/24 06:19:05;;;;;;;18.98;11.98;;;;;;;;;;10539681;28;20400;-83
2024/01/24 06:24:08;;;;;;;23.38;11.77;;;;;;;;;;10534973;28;20408;-84
2024/01/24 06:29:13;;;;;;;22.48;12.98;;;;;;;;;;10544356;28;20623;-84
2024/01/24 06:34:15;;;;;;;17.50;11.37;;;;;;;;;;10552417;28;20738;-83
2024/01/24 06:39:17;;;;;;;22.27;12.68;;;;;;;;;;10548148;28;20403;-84
2024/01/24 06:44:21;;;;;;;21.07;12.03;;;;;;;;;;10545893;28;20906;-84
2024/01/24 06:49:24;;;;;;;22.30;13.10;;;;;;;;;;10539331;28;20515;-85
2024/01/24 06:54:27;;;;;;;26.27;13.57;;;;;;;;;;10537779;28;20432;-84
2024/01/24 06:59:31;;;;;;;25.38;13.02;;;;;;;;;;10538679;28;20424;-84
2024/01/24 07:04:33;;;;;;;19.60;12.40;;;;;;;;;;10536953;28;20898;-85
2024/01/24 07:09:36;;;;;;;24.73;13.07;;;;;;;;;;10558642;28;20782;-82
2024/01/24 07:14:40;;;;;;;24.40;13.37;;;;;;;;;;10551903;28;20476;-82
2024/01/24 07:19:43;;;;;;;23.10;13.33;;;;;;;;;;10555342;28;20476;-82
2024/01/24 07:24:46;;;;;;;23.58;12.93;;;;;;;;;;10564764;28;20395;-82
2024/01/24 07:29:50;;;;;;;31.10;17.60;;;;;;;;;;10570690;28;20460;-82
2024/01/24 07:34:52;;;;;;;24.02;13.82;;;;;;;;;;10560065;28;20446;-81
2024/01/24 07:39:55;;;;;;;22.15;13.65;;;;;;;;;;10567772;28;20404;-82
2024/01/24 07:44:59;;;;;;;27.80;14.95;;;;;;;;;;10563260;28;20432;-82
2024/01/24 07:50:01;;;;;;;28.30;14.77;;;;;;;;;;10562683;28;20453;-82
2024/01/24 07:55:05;;;;;;;25.40;14.23;;;;;;;;;;10560684;28;20479;-83
2024/01/24 08:00:15;;;;;;;25.80;15.90;;;;;;;;;;10560014;28;20884;-83
2024/01/24 08:05:18;;;;;;;28.63;16.33;;;;;;;;;;10555482;28;20433;-83
2024/01/24 08:10:21;;;;;;;32.27;17.27;;;;;;;;;;10532733;28;20826;-82
2024/01/24 08:15:25;;;;;;;32.40;17.00;;;;;;;;;;10560732;28;20452;-82
2024/01/24 08:20:27;;;;;;;28.80;16.25;;;;;;;;;;10559236;28;20398;-83
2024/01/24 08:25:30;;;;;;;30.57;16.90;;;;;;;;;;10562476;28;20431;-82
2024/01/24 08:30:33;;;;;;;29.63;16.27;;;;;;;;;;10551348;28;20452;-82
2024/01/24 08:35:36;;;;;;;28.30;15.95;;;;;;;;;;10561611;28;20440;-81
2024/01/24 08:40:40;;;;;;;26.63;16.50;;;;;;;;;;10557960;28;20437;-81
2024/01/24 08:45:43;;;;;;;26.65;15.93;;;;;;;;;;10559942;28;20410;-81
2024/01/24 08:50:46;;;;;;;25.40;15.82;;;;;;;;;;10560384;28;20437;-81
2024/01/24 08:55:49;;;;;;;23.87;14.13;;;;;;;;;;10559372;28;20546;-81
2024/01/24 09:00:53;;;;;;;26.60;15.70;;;;;;;;;;10553383;28;20396;-83
2024/01/24 09:05:55;;;;;;;27.95;16.08;;;;;;;;;;10553252;28;20461;-82
2024/01/24 09:10:58;;;;;;;27.95;14.45;;;;;;;;;;10553177;28;20420;-82
2024/01/24 09:16:01;;;;;;;20.47;13.40;;;;;;;;;;10552352;28;20403;-83
2024/01/24 09:21:04;;;;;;;25.30;14.73;;;;;;;;;;10558188;28;20399;-83
2024/01/24 09:26:07;;;;;;;32.03;15.87;;;;;;;;;;10547319;28;20398;-82
2024/01/24 09:31:10;;;;;;;21.45;13.93;;;;;;;;;;10567222;28;20420;-83
2024/01/24 09:36:13;;;;;;;23.83;14.87;;;;;;;;;;10541775;28;20464;-83
2024/01/24 09:41:19;;;;;;;28.70;16.33;;;;;;;;;;10551748;28;20397;-83
2024/01/24 09:46:23;;;;;;;22.90;13.73;;;;;;;;;;10543512;28;20430;-83
2024/01/24 09:51:26;;;;;;;25.47;14.10;;;;;;;;;;10547157;28;20515;-83
2024/01/24 09:56:29;;;;;;;24.75;13.50;;;;;;;;;;10544351;28;20525;-83
2024/01/24 10:01:35;;;;;;;27.33;15.52;;;;;;;;;;10554089;28;20454;-83
2024/01/24 10:06:39;;;;;;;24.25;15.25;;;;;;;;;;10553569;28;20512;-82
2024/01/24 10:11:41;;;;;;;27.45;15.18;;;;;;;;;;10549516;28;20493;-84
2024/01/24 10:16:45;;;;;;;23.40;14.68;;;;;;;;;;10557777;28;20456;-83
2024/01/24 10:21:49;;;;;;;25.00;15.45;;;;;;;;;;10563739;28;20878;-81
2024/01/24 10:26:52;;;;;;;26.27;16.17;;;;;;;;;;10550829;28;20411;-82
2024/01/24 10:31:57;;;;;;;25.15;16.23;;;;;;;;;;10543992;28;20532;-82
2024/01/24 10:36:59;;;;;;;24.30;15.10;;;;;;;;;;10538842;28;20437;-81
2024/01/24 10:42:04;;;;;;;24.73;14.77;;;;;;;;;;10554223;28;20438;-81
2024/01/24 10:47:10;;;;;;;22.17;14.23;;;;;;;;;;10552447;28;20431;-82
2024/01/24 10:52:15;;;;;;;22.77;14.10;;;;;;;;;;10556607;28;20511;-82
2024/01/24 10:57:19;;;;;;;29.88;16.38;;;;;;;;;;10556522;28;20447;-83
2024/01/24 11:02:23;;;;;;;25.65;14.98;;;;;;;;;;10553458;28;20499;-83
2024/01/24 11:07:30;;;;;;;25.73;14.50;;;;;;;;;;10554244;28;20510;-81
2024/01/24 11:12:32;;;;;;;34.67;19.45;;;;;;;;;;10561726;28;20512;-83
2024/01/24 11:17:39;;;;;;;23.03;14.73;;;;;;;;;;10579489;28;20446;-82
2024/01/24 11:22:42;;;;;;;23.25;13.80;;;;;;;;;;10573150;28;20405;-81
2024/01/24 11:27:44;;;;;;;26.63;14.43;;;;;;;;;;10563475;28;20469;-82
2024/01/24 11:33:01;;;;;;;34.28;22.63;;;;;;;;;;10562205;28;20507;-83
2024/01/24 11:38:06;;;;;;;23.20;15.60;;;;;;;;;;10560262;28;20876;-83
2024/01/24 11:43:24;;;;;;;26.73;16.02;;;;;;;;;;10570673;28;20411;-83
2024/01/24 11:48:29;;;;;;;48.00;29.50;;;;;;;;;;10562780;28;20408;-82
2024/01/24 11:53:32;;;;;;;32.05;18.65;;;;;;;;;;10556806;28;20454;-82
2024/01/24 11:58:35;;;;;;;28.80;18.00;;;;;;;;;;10552509;28;20842;-82
2024/01/24 12:03:46;;;;;;;31.00;19.05;;;;;;;;;;10562116;28;20914;-82
2024/01/24 12:08:48;;;;;;;28.90;17.60;;;;;;;;;;10562133;28;20448;-82
2024/01/24 12:13:51;;;;;;;33.70;22.23;;;;;;;;;;10555330;28;20454;-82
2024/01/24 12:18:55;;;;;;;28.30;16.13;;;;;;;;;;10562241;28;20454;-82
2024/01/24 12:23:57;;;;;;;26.40;16.42;;;;;;;;;;10561010;28;20412;-81
2024/01/24 12:29:00;;;;;;;26.42;15.88;;;;;;;;;;10561599;28;20483;-81
2024/01/24 12:34:07;;;;;;;26.20;16.92;;;;;;;;;;10557772;28;20451;-82
2024/01/24 12:39:10;;;;;;;23.30;13.93;;;;;;;;;;10550290;28;20450;-82
2024/01/24 12:44:13;;;;;;;24.48;14.73;;;;;;;;;;10551809;28;20446;-82
2024/01/24 12:49:17;;;;;;;24.33;14.77;;;;;;;;;;10555449;28;20489;-82
2024/01/24 12:54:20;;;;;;;26.52;15.52;;;;;;;;;;10553418;28;20426;-82
2024/01/24 12:59:23;;;;;;;26.23;15.65;;;;;;;;;;10544736;28;20503;-82
2024/01/24 13:04:27;;;;;;;24.38;15.82;;;;;;;;;;10551812;28;20416;-81
2024/01/24 13:09:29;;;;;;;26.00;16.08;;;;;;;;;;10551540;28;20946;-81
2024/01/24 13:14:32;;;;;;;27.90;15.60;;;;;;;;;;10568597;28;20451;-84
2024/01/24 13:19:36;;;;;;;28.10;16.08;;;;;;;;;;10559114;28;20391;-84
2024/01/24 13:24:39;;;;;;;29.33;17.63;;;;;;;;;;10556065;28;20450;-84
2024/01/24 13:29:41;;;;;;;29.50;17.87;;;;;;;;;;10555940;28;20932;-84
2024/01/24 13:34:45;;;;;;;26.58;17.48;;;;;;;;;;10553370;28;20893;-84
2024/01/24 13:39:50;;;;;;;24.40;15.68;;;;;;;;;;10553003;28;20448;-84
2024/01/24 13:44:52;;;;;;;25.83;15.60;;;;;;;;;;10558619;28;20953;-83
2024/01/24 13:49:56;;;;;;;23.87;15.37;;;;;;;;;;10550810;28;20438;-85
2024/01/24 13:54:59;;;;;;;25.38;15.82;;;;;;;;;;10557330;28;20497;-83
2024/01/24 14:00:01;;;;;;;27.10;16.70;;;;;;;;;;10554273;28;20758;-84
2024/01/24 14:05:05;;;;;;;24.77;16.20;;;;;;;;;;10556123;28;20765;-83
2024/01/24 14:10:09;;;;;;;24.92;16.33;;;;;;;;;;10551890;28;20859;-83
2024/01/24 14:15:11;;;;;;;25.23;17.40;;;;;;;;;;10558956;28;20464;-82
2024/01/24 14:20:16;;;;;;;26.77;17.90;;;;;;;;;;10578543;28;20516;-84
2024/01/24 14:25:18;;;;;;;23.00;16.42;;;;;;;;;;10543750;28;20508;-84
2024/01/24 14:30:21;;;;;;;26.40;17.70;;;;;;;;;;10565000;28;20540;-82
2024/01/24 14:35:24;;;;;;;24.58;18.20;;;;;;;;;;10557663;28;20434;-84
2024/01/24 14:40:27;;;;;;;26.17;17.57;;;;;;;;;;10559818;28;20539;-83
2024/01/24 14:45:32;;;;;;;27.58;18.88;;;;;;;;;;10556650;28;20429;-84
2024/01/24 14:50:36;;;;;;;26.38;19.25;;;;;;;;;;10556698;28;20475;-84
2024/01/24 14:55:38;;;;;;;30.03;19.13;;;;;;;;;;10559149;28;20437;-84
2024/01/24 15:00:41;;;;;;;30.73;19.20;;;;;;;;;;10576043;28;20494;-84
2024/01/24 15:05:45;;;;;;;28.13;19.43;;;;;;;;;;10553807;28;20494;-84
2024/01/24 15:10:47;;;;;;;30.58;20.73;;;;;;;;;;10555553;28;20489;-83
2024/01/24 15:15:50;;;;;;;30.50;20.50;;;;;;;;;;10549547;28;20445;-84
2024/01/24 15:20:53;;;;;;;37.70;20.50;;;;;;;;;;10563876;28;20436;-83
2024/01/24 15:25:56;;;;;;;34.50;20.88;;;;;;;;;;10551826;28;20476;-82
2024/01/24 15:30:58;;;;;;;39.33;20.70;;;;;;;;;;10548372;28;20515;-82
2024/01/24 15:36:02;;;;;;;36.85;20.65;;;;;;;;;;10548865;28;20515;-84
2024/01/24 15:41:05;;;;;;;41.00;21.27;;;;;;;;;;10547779;28;20515;-82
2024/01/24 15:46:07;;;;;;;34.83;21.20;;;;;;;;;;10548007;28;20388;-83
2024/01/24 15:51:11;;;;;;;39.33;23.17;;;;;;;;;;10548537;28;20446;-83
2024/01/24 15:56:13;;;;;;;39.50;23.02;;;;;;;;;;10555442;28;20910;-83
2024/01/24 16:01:16;;;;;;;37.40;23.25;;;;;;;;;;10549510;28;20499;-83
2024/01/24 16:06:22;;;;;;;37.53;22.60;;;;;;;;;;10558793;28;21220;-83
2024/01/24 16:11:24;;;;;;;37.28;22.95;;;;;;;;;;10558502;28;20452;-82
2024/01/24 16:16:27;;;;;;;39.33;24.17;;;;;;;;;;10559673;28;20439;-81
2024/01/24 16:21:30;;;;;;;35.67;22.37;;;;;;;;;;10553295;28;20411;-84
2024/01/24 16:26:33;;;;;;;38.63;23.40;;;;;;;;;;10555056;28;20442;-83
2024/01/24 16:31:35;;;;;;;46.40;24.17;;;;;;;;;;10558165;28;20499;-83
2024/01/24 16:36:43;;;;;;;43.10;25.48;;;;;;;;;;10554859;28;20411;-83
2024/01/24 16:41:45;;;;;;;40.67;24.15;;;;;;;;;;10558578;28;20828;-82
2024/01/24 16:46:48;;;;;;;40.97;24.73;;;;;;;;;;10560900;28;20476;-82
2024/01/24 16:51:51;;;;;;;50.77;28.33;;;;;;;;;;10561504;28;20427;-83
2024/01/24 16:56:54;;;;;;;51.17;29.55;;;;;;;;;;10556450;28;20477;-83
2024/01/24 17:01:56;;;;;;;52.30;29.13;;;;;;;;;;10545389;28;20406;-84
2024/01/24 17:07:01;;;;;;;57.53;30.58;;;;;;;;;;10554579;28;20522;-83
2024/01/24 17:12:05;;;;;;;64.83;34.93;;;;;;;;;;10561862;28;20474;-85
2024/01/24 17:17:07;;;;;;;50.33;29.45;;;;;;;;;;10554100;28;20403;-83
2024/01/24 17:22:11;;;;;;;52.97;30.43;;;;;;;;;;10553070;28;20499;-82
2024/01/24 17:27:15;;;;;;;56.28;32.08;;;;;;;;;;10553075;28;20444;-81
2024/01/24 17:32:18;;;;;;;54.70;31.25;;;;;;;;;;10537108;28;20519;-84
2024/01/24 17:37:21;;;;;;;55.80;31.03;;;;;;;;;;10463228;28;20997;-81
2024/01/24 17:42:24;;;;;;;55.58;32.10;;;;;;;;;;10465533;28;20486;-81
2024/01/24 17:47:26;;;;;;;53.60;31.07;;;;;;;;;;10459098;28;20493;-80
2024/01/24 17:52:30;;;;;;;49.75;30.92;;;;;;;;;;10468036;28;20519;-81
2024/01/24 17:57:33;;;;;;;50.13;30.67;;;;;;;;;;10462587;28;20613;-81
2024/01/24 18:02:35;;;;;;;51.85;30.27;;;;;;;;;;10467264;28;20436;-82
2024/01/24 18:07:39;;;;;;;51.08;31.20;;;;;;;;;;10469446;28;20533;-83
2024/01/24 18:12:41;;;;;;;53.08;30.20;;;;;;;;;;10454350;28;20478;-82
2024/01/24 18:17:44;;;;;;;53.17;30.70;;;;;;;;;;10467548;28;20599;-84
2024/01/24 18:22:47;;;;;;;51.50;31.37;;;;;;;;;;10469164;28;20570;-85
2024/01/24 18:27:50;;;;;;;55.23;32.47;;;;;;;;;;10457069;28;20491;-82
2024/01/24 18:32:55;;;;;;;49.45;31.42;;;;;;;;;;10477151;28;20495;-82
2024/01/24 18:38:01;;;;;;;62.33;36.87;;;;;;;;;;10546756;28;20475;-83
2024/01/24 18:43:04;;;;;;;60.13;33.63;;;;;;;;;;10563454;28;20498;-84
2024/01/24 18:48:08;;;;;;;70.55;39.40;;;;;;;;;;10546485;28;20852;-82
2024/01/24 18:53:12;;;;;;;71.07;40.87;;;;;;;;;;10548336;28;20556;-82
2024/01/24 18:58:14;;;;;;;70.75;41.08;;;;;;;;;;10550973;28;20510;-81
2024/01/24 19:03:17;;;;;;;69.40;41.03;;;;;;;;;;10545423;28;20461;-82
2024/01/24 19:08:20;;;;;;;69.28;40.65;;;;;;;;;;10551702;28;20539;-82
2024/01/24 19:13:24;;;;;;;64.93;38.30;;;;;;;;;;10551098;28;20457;-81
2024/01/24 19:18:28;;;;;;;60.67;36.05;;;;;;;;;;10554209;28;20437;-83
2024/01/24 19:23:32;;;;;;;64.40;37.30;;;;;;;;;;10561043;28;20494;-82
2024/01/24 19:28:34;;;;;;;58.38;36.67;;;;;;;;;;10561469;28;20461;-82
2024/01/24 19:33:38;;;;;;;63.30;37.30;;;;;;;;;;10550533;28;20471;-84
2024/01/24 19:38:45;;;;;;;65.57;37.15;;;;;;;;;;10553665;28;20466;-84
2024/01/24 19:43:47;;;;;;;69.35;36.78;;;;;;;;;;10552545;28;21201;-85
2024/01/24 19:48:50;;;;;;;64.40;35.90;;;;;;;;;;10554315;28;20444;-84
2024/01/24 19:53:55;;;;;;;62.63;37.10;;;;;;;;;;10553766;28;20473;-84
2024/01/24 19:58:59;;;;;;;66.28;36.40;;;;;;;;;;10554181;28;20490;-84
2024/01/24 20:04:01;;;;;;;62.05;36.40;;;;;;;;;;10554168;28;20475;-83
2024/01/24 20:09:05;;;;;;;63.27;37.20;;;;;;;;;;10561399;28;21037;-84
2024/01/24 20:14:07;;;;;;;68.82;39.45;;;;;;;;;;10551528;28;20892;-84
2024/01/24 20:19:22;;;;;;;66.80;36.97;;;;;;;;;;10553807;28;20407;-84
2024/01/24 20:24:29;;;;;;;83.18;44.47;;;;;;;;;;10554658;28;25110;-84
2024/01/24 20:29:31;;;;;;;64.47;37.70;;;;;;;;;;10567147;28;21402;-82
2024/01/24 20:34:33;;;;;;;71.33;41.27;;;;;;;;;;10576429;28;20490;-85
2024/01/24 20:39:39;;;;;;;66.65;38.67;;;;;;;;;;10555190;28;21228;-84
2024/01/24 20:44:41;;;;;;;64.30;38.72;;;;;;;;;;10556288;28;20445;-83
2024/01/24 20:49:43;;;;;;;67.13;39.40;;;;;;;;;;10558372;28;20451;-84
2024/01/24 20:54:48;;;;;;;63.63;38.00;;;;;;;;;;10552674;28;20840;-83
2024/01/24 20:59:50;;;;;;;65.22;36.95;;;;;;;;;;10562012;28;20840;-83
2024/01/24 21:04:53;;;;;;;65.47;37.30;;;;;;;;;;10554109;28;20408;-82
2024/01/24 21:09:57;;;;;;;62.00;36.63;;;;;;;;;;10553385;28;20767;-85
2024/01/24 21:14:59;;;;;;;61.17;37.40;;;;;;;;;;10549933;28;20926;-85
2024/01/24 21:20:02;;;;;;;67.00;37.03;;;;;;;;;;10539003;28;20806;-84
2024/01/24 21:25:07;;;;;;;59.50;37.10;;;;;;;;;;10552388;28;20445;-83
2024/01/24 21:30:11;;;;;;;69.20;38.38;;;;;;;;;;10546340;28;21026;-84
2024/01/24 21:35:14;;;;;;;68.45;38.75;;;;;;;;;;10545081;28;20492;-83
2024/01/24 21:40:18;;;;;;;75.60;44.25;;;;;;;;;;10552079;28;20433;-84
2024/01/24 21:45:21;;;;;;;73.40;41.83;;;;;;;;;;10549197;28;20940;-84
2024/01/24 21:50:23;;;;;;;70.07;40.95;;;;;;;;;;10550685;28;20399;-84
2024/01/24 21:55:27;;;;;;;66.18;38.03;;;;;;;;;;10552915;28;20479;-83
2024/01/24 22:00:30;;;;;;;64.40;37.42;;;;;;;;;;10548353;28;20432;-83
2024/01/24 22:05:32;;;;;;;68.00;38.63;;;;;;;;;;10547222;28;20426;-84
2024/01/24 22:10:36;;;;;;;64.97;38.90;;;;;;;;;;10542043;28;20440;-83
2024/01/24 22:15:39;;;;;;;66.57;37.75;;;;;;;;;;10540565;28;20524;-83
2024/01/24 22:20:41;;;;;;;65.65;37.97;;;;;;;;;;10571750;28;20396;-83
2024/01/24 22:25:45;;;;;;;65.55;37.33;;;;;;;;;;10545331;28;20443;-83
2024/01/24 22:30:48;;;;;;;62.75;36.78;;;;;;;;;;10537318;28;20910;-83
2024/01/24 22:35:51;;;;;;;61.07;35.77;;;;;;;;;;10537815;28;20471;-81
2024/01/24 22:40:55;;;;;;;64.65;35.55;;;;;;;;;;10546252;28;20512;-82
2024/01/24 22:45:57;;;;;;;64.80;37.47;;;;;;;;;;10550330;28;20877;-83
2024/01/24 22:51:00;;;;;;;58.30;34.33;;;;;;;;;;10548568;28;20425;-83
2024/01/24 22:56:04;;;;;;;56.55;34.50;;;;;;;;;;10555983;28;20413;-83
2024/01/24 23:01:07;;;;;;;61.60;34.47;;;;;;;;;;10559834;28;20416;-83
2024/01/24 23:06:09;;;;;;;59.90;35.77;;;;;;;;;;10563792;28;20409;-84
2024/01/24 23:11:13;;;;;;;61.97;35.83;;;;;;;;;;10550756;28;20445;-83
2024/01/24 23:16:15;;;;;;;63.28;35.78;;;;;;;;;;10553496;28;20451;-84
2024/01/24 23:21:18;;;;;;;62.00;34.20;;;;;;;;;;10558121;28;20426;-83
2024/01/24 23:26:22;;;;;;;56.95;33.28;;;;;;;;;;10546997;28;20449;-84
2024/01/24 23:31:24;;;;;;;64.68;34.38;;;;;;;;;;10553580;28;20466;-84
2024/01/24 23:36:27;;;;;;;58.47;33.33;;;;;;;;;;10544581;28;20447;-83
2024/01/24 23:41:31;;;;;;;53.75;31.83;;;;;;;;;;10548967;28;20444;-84
2024/01/24 23:46:33;;;;;;;55.55;31.52;;;;;;;;;;10551304;28;20400;-84
2024/01/24 23:51:36;;;;;;;55.95;31.70;;;;;;;;;;10554873;28;20415;-84
2024/01/24 23:56:40;;;;;;;55.60;31.70;;;;;;;;;;10554914;28;20901;-84
